createdAt,value
2018-08-13T00:00:13.400Z,0
2018-08-13T00:01:14.115Z,0
2018-08-13T00:02:14.831Z,0
2018-08-13T00:03:15.546Z,0
2018-08-13T00:04:16.306Z,0
2018-08-13T00:05:16.996Z,0
2018-08-13T00:06:17.708Z,0
2018-08-13T00:07:18.422Z,0
2018-08-13T00:08:19.133Z,0
2018-08-13T00:09:19.848Z,0
2018-08-13T00:10:20.563Z,0
2018-08-13T00:11:21.277Z,0
2018-08-13T00:12:21.991Z,0
2018-08-13T00:13:22.704Z,0
2018-08-13T00:14:23.417Z,0
2018-08-13T00:15:24.132Z,0
2018-08-13T00:16:24.860Z,0
2018-08-13T00:17:25.639Z,0
2018-08-13T00:18:26.309Z,0
2018-08-13T00:19:27.035Z,0
2018-08-13T00:20:27.764Z,0
2018-08-13T00:21:28.478Z,0
2018-08-13T00:22:29.194Z,0
2018-08-13T00:23:29.927Z,0
2018-08-13T00:24:30.638Z,0
2018-08-13T00:25:31.365Z,0
2018-08-13T00:26:32.080Z,0
2018-08-13T00:27:32.808Z,0
2018-08-13T00:28:33.522Z,0
2018-08-13T00:29:34.237Z,0
2018-08-13T00:30:34.954Z,0
2018-08-13T00:31:35.683Z,0
2018-08-13T00:32:36.396Z,0
2018-08-13T00:33:37.113Z,0
2018-08-13T00:34:37.825Z,0
2018-08-13T00:35:38.539Z,0
2018-08-13T00:36:39.255Z,0
2018-08-13T00:37:39.968Z,0
2018-08-13T00:38:40.682Z,0
2018-08-13T00:39:41.396Z,0
2018-08-13T00:40:42.108Z,0
2018-08-13T00:41:42.822Z,0
2018-08-13T00:42:43.537Z,0
2018-08-13T00:43:44.251Z,0
2018-08-13T00:44:44.979Z,0
2018-08-13T00:45:45.694Z,0
2018-08-13T00:46:46.409Z,0
2018-08-13T00:47:47.137Z,0
2018-08-13T00:48:47.852Z,0
2018-08-13T00:49:48.568Z,0
2018-08-13T00:50:49.282Z,0
2018-08-13T00:51:49.998Z,0
2018-08-13T00:52:50.715Z,0
2018-08-13T00:53:51.446Z,0
2018-08-13T00:54:52.176Z,0
2018-08-13T00:55:52.908Z,0
2018-08-13T00:56:53.621Z,0
2018-08-13T00:57:54.334Z,0
2018-08-13T00:58:55.048Z,0
2018-08-13T00:59:55.765Z,0
2018-08-13T01:00:56.491Z,0
2018-08-13T01:01:57.206Z,0
2018-08-13T01:02:57.919Z,0
2018-08-13T01:03:58.633Z,0
2018-08-13T01:04:59.350Z,0
2018-08-13T01:06:00.065Z,0
2018-08-13T01:07:00.781Z,0
2018-08-13T01:08:01.494Z,0
2018-08-13T01:09:02.225Z,0
2018-08-13T01:10:02.941Z,0
2018-08-13T01:11:03.656Z,0
2018-08-13T01:12:04.372Z,0
2018-08-13T01:13:05.088Z,0
2018-08-13T01:14:05.818Z,0
2018-08-13T01:15:06.531Z,0
2018-08-13T01:16:07.247Z,0
2018-08-13T01:17:07.961Z,0
2018-08-13T01:18:08.676Z,0
2018-08-13T01:19:09.395Z,0
2018-08-13T01:20:10.122Z,0
2018-08-13T01:21:10.838Z,0
2018-08-13T01:22:11.555Z,0
2018-08-13T01:23:12.273Z,0
2018-08-13T01:24:12.997Z,0
2018-08-13T01:25:13.713Z,0
2018-08-13T01:26:14.428Z,0
2018-08-13T01:27:15.146Z,0
2018-08-13T01:28:15.872Z,0
2018-08-13T01:29:16.602Z,0
2018-08-13T01:30:17.319Z,0
2018-08-13T01:31:18.044Z,0
2018-08-13T01:32:18.760Z,0
2018-08-13T01:34:22.408Z,0
2018-08-13T01:35:23.120Z,0
2018-08-13T01:36:23.848Z,0
2018-08-13T01:37:24.576Z,0
2018-08-13T01:38:25.291Z,0
2018-08-13T01:39:26.006Z,0
2018-08-13T01:40:26.721Z,0
2018-08-13T01:41:27.438Z,0
2018-08-13T01:42:28.155Z,0
2018-08-13T01:43:28.873Z,0
2018-08-13T01:44:29.600Z,0
2018-08-13T01:45:30.329Z,0
2018-08-13T01:46:31.043Z,0
2018-08-13T01:47:31.757Z,0
2018-08-13T01:48:32.470Z,0
2018-08-13T01:49:33.184Z,0
2018-08-13T01:50:33.899Z,0
2018-08-13T01:51:34.613Z,0
2018-08-13T01:52:35.327Z,0
2018-08-13T01:53:36.042Z,0
2018-08-13T01:54:36.756Z,0
2018-08-13T01:55:37.467Z,0
2018-08-13T01:56:38.183Z,0
2018-08-13T01:57:38.899Z,0
2018-08-13T01:58:39.608Z,0
2018-08-13T01:59:40.323Z,0
2018-08-13T02:00:41.050Z,0
2018-08-13T02:01:41.822Z,0
2018-08-13T02:02:42.479Z,0
2018-08-13T02:03:43.194Z,0
2018-08-13T02:04:43.919Z,0
2018-08-13T02:05:44.632Z,0
2018-08-13T02:06:45.344Z,0
2018-08-13T02:07:46.060Z,0
2018-08-13T02:08:46.784Z,0
2018-08-13T02:09:47.497Z,0
2018-08-13T02:10:48.212Z,0
2018-08-13T02:11:48.925Z,0
2018-08-13T02:12:49.638Z,0
2018-08-13T02:13:50.366Z,0
2018-08-13T02:14:51.080Z,0
2018-08-13T02:15:51.790Z,0
2018-08-13T02:16:52.504Z,0
2018-08-13T02:17:53.218Z,0
2018-08-13T02:18:53.931Z,0
2018-08-13T02:19:54.645Z,0
2018-08-13T02:20:55.372Z,0
2018-08-13T02:21:56.088Z,0
2018-08-13T02:22:56.804Z,0
2018-08-13T02:23:57.526Z,0
2018-08-13T02:24:58.244Z,0
2018-08-13T02:25:58.957Z,0
2018-08-13T02:26:59.673Z,0
2018-08-13T02:28:00.382Z,0
2018-08-13T02:29:01.095Z,0
2018-08-13T02:30:01.807Z,0
2018-08-13T02:31:02.518Z,0
2018-08-13T02:32:03.230Z,0
2018-08-13T02:33:03.944Z,0
2018-08-13T02:34:04.660Z,0
2018-08-13T02:35:05.371Z,0
2018-08-13T02:42:01.337Z,0
2018-08-13T02:43:02.052Z,0
2018-08-13T02:44:02.765Z,0
2018-08-13T02:45:03.495Z,0
2018-08-13T02:46:04.217Z,0
2018-08-13T02:47:04.930Z,0
2018-08-13T02:48:05.655Z,0
2018-08-13T02:49:06.382Z,0
2018-08-13T02:50:07.095Z,0
2018-08-13T02:51:07.794Z,0
2018-08-13T02:52:08.508Z,0
2018-08-13T02:53:09.237Z,0
2018-08-13T02:54:09.954Z,0
2018-08-13T02:55:10.669Z,0
2018-08-13T02:56:11.382Z,0
2018-08-13T02:57:12.109Z,0
2018-08-13T02:58:12.877Z,0
2018-08-13T02:59:13.535Z,0
2018-08-13T03:00:14.261Z,0
2018-08-13T03:01:14.986Z,0
2018-08-13T03:02:15.712Z,0
2018-08-13T03:03:16.443Z,0
2018-08-13T03:04:17.166Z,0
2018-08-13T03:05:17.882Z,0
2018-08-13T03:06:18.593Z,0
2018-08-13T03:07:19.308Z,0
2018-08-13T03:08:20.020Z,0
2018-08-13T03:09:20.747Z,0
2018-08-13T03:10:21.461Z,0
2018-08-13T03:11:22.188Z,0
2018-08-13T03:12:22.901Z,0
2018-08-13T03:13:23.612Z,0
2018-08-13T03:14:24.323Z,0
2018-08-13T03:15:25.036Z,0
2018-08-13T03:16:25.748Z,0
2018-08-13T03:17:26.462Z,0
2018-08-13T03:18:27.188Z,0
2018-08-13T03:19:27.902Z,0
2018-08-13T03:20:28.628Z,0
2018-08-13T03:21:29.340Z,0
2018-08-13T03:22:30.068Z,0
2018-08-13T03:23:30.785Z,0
2018-08-13T03:24:31.512Z,0
2018-08-13T03:25:32.223Z,0
2018-08-13T03:26:32.933Z,0
2018-08-13T03:27:33.645Z,0
2018-08-13T03:28:34.358Z,0
2018-08-13T03:29:35.075Z,0
2018-08-13T03:30:35.804Z,0
2018-08-13T03:31:36.498Z,0
2018-08-13T03:32:37.220Z,0
2018-08-13T03:33:38.057Z,0
2018-08-13T03:34:38.655Z,0
2018-08-13T03:35:39.369Z,0
2018-08-13T03:36:40.082Z,0
2018-08-13T03:37:40.795Z,0
2018-08-13T03:38:41.511Z,0
2018-08-13T03:39:42.222Z,0
2018-08-13T03:40:42.935Z,0
2018-08-13T03:41:43.649Z,0
2018-08-13T03:42:44.362Z,0
2018-08-13T03:43:45.075Z,0
2018-08-13T03:44:45.788Z,0
2018-08-13T03:45:46.501Z,0
2018-08-13T03:46:47.213Z,0
2018-08-13T03:47:47.941Z,0
2018-08-13T03:48:48.669Z,0
2018-08-13T03:49:49.387Z,0
2018-08-13T03:50:50.109Z,0
2018-08-13T03:51:50.821Z,0
2018-08-13T03:52:51.534Z,0
2018-08-13T03:53:52.331Z,0
2018-08-13T03:54:52.956Z,0
2018-08-13T03:55:53.682Z,0
2018-08-13T03:56:54.397Z,0
2018-08-13T03:57:55.110Z,0
2018-08-13T03:58:55.825Z,0
2018-08-13T03:59:56.539Z,0
2018-08-13T04:00:57.264Z,0
2018-08-13T04:01:57.977Z,0
2018-08-13T04:02:58.690Z,0
2018-08-13T04:03:59.417Z,0
2018-08-13T04:05:00.133Z,0
2018-08-13T04:06:00.847Z,0
2018-08-13T04:07:01.596Z,0
2018-08-13T04:08:02.273Z,0
2018-08-13T04:09:03.000Z,0
2018-08-13T04:10:03.713Z,0
2018-08-13T04:11:04.425Z,0
2018-08-13T04:12:05.156Z,0
2018-08-13T04:13:05.865Z,0
2018-08-13T04:14:06.578Z,0
2018-08-13T04:15:07.307Z,0
2018-08-13T04:16:08.022Z,0
2018-08-13T04:17:08.735Z,0
2018-08-13T04:18:09.462Z,0
2018-08-13T04:19:10.176Z,0
2018-08-13T04:20:10.889Z,0
2018-08-13T04:21:11.602Z,0
2018-08-13T04:22:12.317Z,5
2018-08-13T04:23:13.044Z,5
2018-08-13T04:24:13.757Z,5
2018-08-13T04:25:14.472Z,5
2018-08-13T04:26:15.186Z,5
2018-08-13T04:27:15.923Z,5
2018-08-13T04:28:16.645Z,10
2018-08-13T04:29:17.360Z,10
2018-08-13T04:30:18.074Z,10
2018-08-13T04:31:18.805Z,10
2018-08-13T04:32:19.530Z,15
2018-08-13T04:33:20.248Z,15
2018-08-13T04:34:20.964Z,20
2018-08-13T04:35:21.680Z,25
2018-08-13T04:36:22.408Z,25
2018-08-13T04:37:23.123Z,30
2018-08-13T04:38:23.839Z,30
2018-08-13T04:39:24.572Z,35
2018-08-13T04:40:25.302Z,35
2018-08-13T04:41:26.019Z,30
2018-08-13T04:42:26.736Z,35
2018-08-13T04:43:27.454Z,30
2018-08-13T04:44:28.174Z,30
2018-08-13T04:45:28.885Z,30
2018-08-13T04:46:29.601Z,25
2018-08-13T04:47:30.316Z,25
2018-08-13T04:48:31.031Z,25
2018-08-13T04:49:31.749Z,25
2018-08-13T04:50:32.478Z,25
2018-08-13T04:51:33.203Z,25
2018-08-13T04:52:33.919Z,25
2018-08-13T04:53:34.636Z,25
2018-08-13T04:54:35.350Z,20
2018-08-13T04:55:36.066Z,20
2018-08-13T04:56:36.781Z,20
2018-08-13T04:57:37.511Z,20
2018-08-13T04:58:38.227Z,15
2018-08-13T04:59:38.942Z,15
2018-08-13T05:00:39.658Z,15
2018-08-13T05:01:40.388Z,15
2018-08-13T05:02:41.103Z,15
2018-08-13T05:03:41.820Z,15
2018-08-13T05:04:42.550Z,15
2018-08-13T05:05:43.267Z,15
2018-08-13T05:06:43.983Z,15
2018-08-13T05:07:44.698Z,15
2018-08-13T05:08:45.413Z,20
2018-08-13T05:09:46.128Z,20
2018-08-13T05:10:46.844Z,20
2018-08-13T05:11:47.558Z,20
2018-08-13T05:12:48.286Z,25
2018-08-13T05:13:49.004Z,25
2018-08-13T05:14:49.719Z,30
2018-08-13T05:15:50.436Z,30
2018-08-13T05:16:51.157Z,30
2018-08-13T05:19:09.582Z,30
2018-08-13T05:20:10.298Z,30
2018-08-13T05:21:11.056Z,30
2018-08-13T05:22:11.749Z,35
2018-08-13T05:23:12.469Z,40
2018-08-13T05:24:13.184Z,45
2018-08-13T05:25:13.903Z,45
2018-08-13T05:26:14.621Z,50
2018-08-13T05:27:15.339Z,50
2018-08-13T05:28:16.071Z,50
2018-08-13T05:29:16.791Z,50
2018-08-13T05:30:17.564Z,50
2018-08-13T05:31:18.228Z,50
2018-08-13T05:32:18.947Z,50
2018-08-13T05:33:19.679Z,50
2018-08-13T05:34:20.401Z,50
2018-08-13T05:35:21.122Z,45
2018-08-13T05:36:21.850Z,45
2018-08-13T05:37:22.567Z,45
2018-08-13T05:38:23.341Z,45
2018-08-13T05:39:24.000Z,45
2018-08-13T05:40:24.719Z,45
2018-08-13T05:41:25.439Z,45
2018-08-13T05:42:26.158Z,45
2018-08-13T05:43:26.875Z,45
2018-08-13T05:44:27.591Z,45
2018-08-13T05:45:28.309Z,50
2018-08-13T05:46:29.029Z,50
2018-08-13T05:47:29.748Z,50
2018-08-13T05:48:30.465Z,55
2018-08-13T05:49:31.197Z,55
2018-08-13T05:50:31.914Z,55
2018-08-13T05:51:32.652Z,55
2018-08-13T05:52:33.377Z,55
2018-08-13T05:53:34.096Z,55
2018-08-13T05:54:34.827Z,55
2018-08-13T05:55:35.546Z,50
2018-08-13T05:56:36.263Z,50
2018-08-13T05:57:36.996Z,50
2018-08-13T05:58:37.713Z,50
2018-08-13T05:59:38.443Z,50
2018-08-13T06:00:39.160Z,50
2018-08-13T06:01:39.876Z,50
2018-08-13T06:02:40.595Z,50
2018-08-13T06:03:41.313Z,50
2018-08-13T06:04:42.047Z,50
2018-08-13T06:05:42.774Z,50
2018-08-13T06:06:43.500Z,50
2018-08-13T06:07:44.228Z,50
2018-08-13T06:08:44.948Z,55
2018-08-13T06:09:45.667Z,55
2018-08-13T06:10:46.400Z,50
2018-08-13T06:11:47.120Z,50
2018-08-13T06:12:47.840Z,50
2018-08-13T06:13:48.558Z,50
2018-08-13T06:14:49.274Z,50
2018-08-13T06:15:50.002Z,55
2018-08-13T06:16:50.718Z,55
2018-08-13T06:17:51.450Z,55
2018-08-13T06:18:52.168Z,60
2018-08-13T06:19:52.885Z,60
2018-08-13T06:20:53.603Z,65
2018-08-13T06:21:54.322Z,70
2018-08-13T06:22:55.040Z,75
2018-08-13T06:23:55.757Z,85
2018-08-13T06:24:56.475Z,90
2018-08-13T06:25:57.191Z,95
2018-08-13T06:26:57.909Z,105
2018-08-13T06:27:58.642Z,115
2018-08-13T06:28:59.361Z,125
2018-08-13T06:30:00.122Z,135
2018-08-13T06:31:00.823Z,140
2018-08-13T06:32:01.557Z,135
2018-08-13T06:33:02.277Z,130
2018-08-13T06:34:02.996Z,125
2018-08-13T06:35:03.716Z,115
2018-08-13T06:36:04.437Z,100
2018-08-13T06:37:05.155Z,85
2018-08-13T06:38:05.871Z,65
2018-08-13T06:39:06.602Z,55
2018-08-13T06:40:07.334Z,55
2018-08-13T06:41:08.050Z,55
2018-08-13T06:42:08.771Z,60
2018-08-13T06:43:09.487Z,70
2018-08-13T06:44:10.205Z,80
2018-08-13T06:45:10.927Z,80
2018-08-13T06:46:11.656Z,90
2018-08-13T06:47:12.375Z,90
2018-08-13T06:48:13.093Z,90
2018-08-13T06:49:13.815Z,95
2018-08-13T06:50:14.541Z,95
2018-08-13T06:51:15.274Z,95
2018-08-13T06:52:15.993Z,100
2018-08-13T06:53:16.710Z,110
2018-08-13T06:54:17.430Z,120
2018-08-13T06:55:18.151Z,130
2018-08-13T06:56:18.873Z,135
2018-08-13T06:57:19.589Z,130
2018-08-13T06:58:20.321Z,130
2018-08-13T06:59:21.039Z,130
2018-08-13T07:00:21.758Z,130
2018-08-13T07:01:22.479Z,125
2018-08-13T07:02:23.198Z,130
2018-08-13T07:03:23.923Z,135
2018-08-13T07:04:24.651Z,145
2018-08-13T07:05:25.372Z,155
2018-08-13T07:06:26.093Z,160
2018-08-13T07:07:26.812Z,165
2018-08-13T07:08:27.532Z,175
2018-08-13T07:09:28.254Z,175
2018-08-13T07:10:28.978Z,175
2018-08-13T07:11:29.695Z,170
2018-08-13T07:12:30.427Z,150
2018-08-13T07:13:31.146Z,145
2018-08-13T07:14:31.868Z,135
2018-08-13T07:15:32.589Z,120
2018-08-13T07:16:33.308Z,105
2018-08-13T07:17:34.025Z,100
2018-08-13T07:18:34.742Z,90
2018-08-13T07:19:35.461Z,80
2018-08-13T07:20:36.181Z,75
2018-08-13T07:21:36.899Z,65
2018-08-13T07:22:37.617Z,60
2018-08-13T07:23:38.334Z,60
2018-08-13T07:24:39.052Z,70
2018-08-13T07:25:39.788Z,75
2018-08-13T07:26:40.518Z,80
2018-08-13T07:27:41.241Z,85
2018-08-13T07:28:41.953Z,80
2018-08-13T07:29:42.672Z,85
2018-08-13T07:30:43.404Z,85
2018-08-13T07:31:44.123Z,85
2018-08-13T07:32:44.856Z,80
2018-08-13T07:33:45.647Z,75
2018-08-13T07:34:46.301Z,75
2018-08-13T07:35:47.019Z,70
2018-08-13T07:36:47.737Z,75
2018-08-13T07:37:48.456Z,80
2018-08-13T07:38:49.226Z,85
2018-08-13T07:39:49.892Z,90
2018-08-13T07:40:50.625Z,95
2018-08-13T07:41:51.342Z,110
2018-08-13T07:42:52.060Z,110
2018-08-13T07:43:52.777Z,110
2018-08-13T07:44:53.498Z,110
2018-08-13T07:45:54.214Z,110
2018-08-13T07:46:54.933Z,110
2018-08-13T07:47:55.666Z,110
2018-08-13T07:48:56.383Z,115
2018-08-13T07:49:57.102Z,125
2018-08-13T07:50:57.819Z,135
2018-08-13T07:51:58.540Z,150
2018-08-13T07:52:59.258Z,160
2018-08-13T07:53:59.977Z,175
2018-08-13T07:55:00.711Z,190
2018-08-13T07:56:01.426Z,210
2018-08-13T07:57:02.156Z,225
2018-08-13T07:58:02.876Z,240
2018-08-13T07:59:03.598Z,260
2018-08-13T08:00:04.359Z,265
2018-08-13T08:01:05.044Z,280
2018-08-13T08:02:05.810Z,295
2018-08-13T08:03:06.544Z,305
2018-08-13T08:04:07.265Z,315
2018-08-13T08:05:08.011Z,320
2018-08-13T08:06:08.804Z,325
2018-08-13T08:07:09.523Z,325
2018-08-13T08:08:10.286Z,335
2018-08-13T08:09:11.042Z,355
2018-08-13T08:10:11.765Z,350
2018-08-13T08:11:12.485Z,355
2018-08-13T08:12:13.292Z,330
2018-08-13T08:13:14.015Z,310
2018-08-13T08:14:14.777Z,305
2018-08-13T08:15:15.504Z,305
2018-08-13T08:16:16.230Z,305
2018-08-13T08:17:16.961Z,305
2018-08-13T08:18:17.696Z,305
2018-08-13T08:19:18.425Z,305
2018-08-13T08:20:19.160Z,305
2018-08-13T08:21:19.897Z,300
2018-08-13T08:22:20.605Z,300
2018-08-13T08:23:21.330Z,310
2018-08-13T08:24:22.056Z,310
2018-08-13T08:25:22.791Z,315
2018-08-13T08:26:23.513Z,310
2018-08-13T08:27:24.250Z,315
2018-08-13T08:28:24.973Z,305
2018-08-13T08:29:25.783Z,305
2018-08-13T08:30:26.430Z,305
2018-08-13T08:31:27.165Z,295
2018-08-13T08:32:27.901Z,280
2018-08-13T08:33:28.638Z,270
2018-08-13T08:34:29.361Z,250
2018-08-13T08:35:30.083Z,240
2018-08-13T08:36:30.818Z,240
2018-08-13T08:37:31.540Z,240
2018-08-13T08:38:32.283Z,240
2018-08-13T08:39:33.010Z,235
2018-08-13T08:40:33.815Z,220
2018-08-13T08:41:34.454Z,225
2018-08-13T08:42:35.174Z,180
2018-08-13T08:43:35.897Z,155
2018-08-13T08:44:36.619Z,140
2018-08-13T08:45:37.340Z,120
2018-08-13T08:46:38.063Z,115
2018-08-13T08:47:38.797Z,125
2018-08-13T08:48:39.532Z,145
2018-08-13T08:49:40.255Z,165
2018-08-13T08:50:40.976Z,185
2018-08-13T08:51:41.696Z,175
2018-08-13T08:52:42.433Z,160
2018-08-13T08:53:43.154Z,160
2018-08-13T08:54:43.874Z,175
2018-08-13T08:55:44.596Z,200
2018-08-13T08:56:45.314Z,225
2018-08-13T08:57:46.047Z,240
2018-08-13T08:58:46.769Z,250
2018-08-13T08:59:47.490Z,250
2018-08-13T09:00:48.262Z,245
2018-08-13T09:01:48.947Z,235
2018-08-13T09:02:49.684Z,230
2018-08-13T09:03:50.415Z,225
2018-08-13T09:04:51.147Z,230
2018-08-13T09:05:51.918Z,225
2018-08-13T09:06:52.602Z,220
2018-08-13T09:07:53.322Z,220
2018-08-13T09:08:54.056Z,215
2018-08-13T09:09:54.777Z,210
2018-08-13T09:10:55.500Z,215
2018-08-13T09:11:56.220Z,225
2018-08-13T09:12:56.939Z,230
2018-08-13T09:13:57.660Z,230
2018-08-13T09:14:58.382Z,225
2018-08-13T09:15:59.100Z,205
2018-08-13T09:16:59.824Z,175
2018-08-13T09:18:00.546Z,155
2018-08-13T09:19:01.297Z,145
2018-08-13T09:20:02.013Z,155
2018-08-13T09:21:02.746Z,180
2018-08-13T09:22:03.478Z,215
2018-08-13T09:23:04.200Z,225
2018-08-13T09:24:04.919Z,230
2018-08-13T09:25:05.640Z,225
2018-08-13T09:26:06.373Z,220
2018-08-13T09:27:07.111Z,210
2018-08-13T09:28:07.841Z,215
2018-08-13T09:29:08.563Z,220
2018-08-13T09:30:09.299Z,210
2018-08-13T09:31:10.031Z,190
2018-08-13T09:32:10.753Z,180
2018-08-13T09:33:11.485Z,185
2018-08-13T09:34:12.224Z,205
2018-08-13T09:35:12.938Z,220
2018-08-13T09:36:13.659Z,225
2018-08-13T09:37:14.391Z,220
2018-08-13T09:38:15.114Z,195
2018-08-13T09:39:15.836Z,170
2018-08-13T09:40:16.556Z,160
2018-08-13T09:41:17.275Z,175
2018-08-13T09:42:17.999Z,200
2018-08-13T09:43:18.730Z,215
2018-08-13T09:44:19.452Z,205
2018-08-13T09:45:20.173Z,190
2018-08-13T09:46:20.893Z,195
2018-08-13T09:47:21.614Z,200
2018-08-13T09:48:22.335Z,185
2018-08-13T09:49:23.055Z,170
2018-08-13T09:50:23.774Z,165
2018-08-13T09:51:24.509Z,170
2018-08-13T09:52:25.230Z,190
2018-08-13T09:53:25.951Z,210
2018-08-13T09:54:26.673Z,220
2018-08-13T09:55:27.392Z,235
2018-08-13T09:56:28.113Z,240
2018-08-13T09:57:28.834Z,260
2018-08-13T09:58:29.562Z,275
2018-08-13T09:59:30.279Z,300
2018-08-13T10:00:31.001Z,295
2018-08-13T10:01:31.726Z,340
2018-08-13T10:02:32.447Z,375
2018-08-13T10:03:33.183Z,330
2018-08-13T10:04:33.906Z,380
2018-08-13T10:05:34.629Z,685
2018-08-13T10:06:35.355Z,525
2018-08-13T10:07:36.079Z,630
2018-08-13T10:08:36.803Z,465
2018-08-13T10:09:37.544Z,380
2018-08-13T10:10:38.268Z,1195
2018-08-13T10:11:38.998Z,1495
2018-08-13T10:12:39.726Z,990
2018-08-13T10:13:40.456Z,450
2018-08-13T10:14:41.188Z,1035
2018-08-13T10:15:41.931Z,1425
2018-08-13T10:16:42.700Z,765
2018-08-13T10:17:43.409Z,1610
2018-08-13T10:18:44.126Z,1295
2018-08-13T10:19:44.853Z,690
2018-08-13T10:20:45.582Z,1930
2018-08-13T10:21:46.326Z,1035
2018-08-13T10:22:47.075Z,405
2018-08-13T10:23:47.785Z,410
2018-08-13T10:24:48.514Z,420
2018-08-13T10:25:49.240Z,490
2018-08-13T10:26:49.969Z,1305
2018-08-13T10:27:50.696Z,740
2018-08-13T10:28:51.424Z,810
2018-08-13T10:29:52.275Z,1030
2018-08-13T10:30:52.904Z,910
2018-08-13T10:31:53.632Z,1865
2018-08-13T10:32:54.365Z,2150
2018-08-13T10:33:55.095Z,1375
2018-08-13T10:34:55.825Z,915
2018-08-13T10:35:56.554Z,1460
2018-08-13T10:36:57.287Z,2140
2018-08-13T10:37:58.034Z,2035
2018-08-13T10:38:58.764Z,2120
2018-08-13T10:39:59.514Z,2150
2018-08-13T10:41:00.245Z,2080
2018-08-13T10:42:00.978Z,2035
2018-08-13T10:43:01.725Z,2065
2018-08-13T10:44:02.459Z,2115
2018-08-13T10:45:03.193Z,2155
2018-08-13T10:46:03.927Z,2145
2018-08-13T10:47:04.662Z,2330
2018-08-13T10:48:05.399Z,2300
2018-08-13T10:49:06.149Z,2165
2018-08-13T10:50:06.884Z,2170
2018-08-13T10:51:07.632Z,2215
2018-08-13T10:52:08.373Z,2245
2018-08-13T10:53:09.114Z,2165
2018-08-13T10:54:09.864Z,2230
2018-08-13T10:55:10.611Z,2440
2018-08-13T10:56:11.393Z,2260
2018-08-13T10:57:12.104Z,2365
2018-08-13T10:58:12.861Z,1225
2018-08-13T10:59:13.605Z,2580
2018-08-13T11:00:14.352Z,2395
2018-08-13T11:01:15.170Z,2260
2018-08-13T11:02:15.843Z,1595
2018-08-13T11:03:16.598Z,770
2018-08-13T11:04:17.342Z,2465
2018-08-13T11:05:18.082Z,1975
2018-08-13T11:06:18.827Z,2370
2018-08-13T11:07:19.573Z,2510
2018-08-13T11:08:20.327Z,2380
2018-08-13T11:09:21.067Z,895
2018-08-13T11:10:21.855Z,885
2018-08-13T11:11:22.563Z,815
2018-08-13T11:12:23.318Z,1025
2018-08-13T11:13:24.106Z,690
2018-08-13T11:14:24.803Z,865
2018-08-13T11:15:25.532Z,775
2018-08-13T11:16:26.264Z,795
2018-08-13T11:17:26.999Z,765
2018-08-13T11:18:27.735Z,890
2018-08-13T11:19:28.476Z,830
2018-08-13T11:20:29.206Z,560
2018-08-13T11:21:29.976Z,450
2018-08-13T11:22:30.671Z,405
2018-08-13T11:23:31.411Z,400
2018-08-13T11:24:32.142Z,430
2018-08-13T11:25:32.873Z,490
2018-08-13T11:26:33.607Z,630
2018-08-13T11:27:34.346Z,645
2018-08-13T11:28:35.095Z,1540
2018-08-13T11:29:35.815Z,1075
2018-08-13T11:30:36.538Z,960
2018-08-13T11:31:37.270Z,1040
2018-08-13T11:32:38.013Z,2335
2018-08-13T11:33:38.747Z,1910
2018-08-13T11:34:39.522Z,1575
2018-08-13T11:35:40.211Z,1190
2018-08-13T11:36:40.954Z,1095
2018-08-13T11:37:41.684Z,800
2018-08-13T11:38:42.417Z,795
2018-08-13T11:39:43.149Z,1860
2018-08-13T11:40:43.905Z,1815
2018-08-13T11:41:44.624Z,2335
2018-08-13T11:42:45.358Z,1340
2018-08-13T11:43:46.102Z,2045
2018-08-13T11:44:46.835Z,2505
2018-08-13T11:45:47.567Z,1495
2018-08-13T11:46:48.298Z,815
2018-08-13T11:47:49.035Z,745
2018-08-13T11:48:49.774Z,540
2018-08-13T11:49:50.509Z,585
2018-08-13T11:50:51.249Z,760
2018-08-13T11:51:51.986Z,1330
2018-08-13T11:52:52.711Z,1565
2018-08-13T11:53:53.443Z,1730
2018-08-13T11:54:54.173Z,1740
2018-08-13T11:55:54.906Z,2085
2018-08-13T11:56:55.639Z,2470
2018-08-13T11:57:56.375Z,2640
2018-08-13T11:58:57.120Z,1490
2018-08-13T11:59:57.863Z,1140
2018-08-13T12:00:58.653Z,1085
2018-08-13T12:01:59.353Z,1265
2018-08-13T12:03:00.076Z,1375
2018-08-13T12:04:00.807Z,1440
2018-08-13T12:05:01.553Z,1155
2018-08-13T12:06:02.298Z,1040
2018-08-13T12:07:03.044Z,1810
2018-08-13T12:08:03.776Z,2475
2018-08-13T12:09:04.511Z,1665
2018-08-13T12:10:05.257Z,1690
2018-08-13T12:11:05.990Z,1455
2018-08-13T12:12:06.726Z,1555
2018-08-13T12:13:07.455Z,1075
2018-08-13T12:14:08.333Z,670
2018-08-13T12:15:08.918Z,1010
2018-08-13T12:16:09.661Z,735
2018-08-13T12:17:10.400Z,520
2018-08-13T12:18:11.124Z,450
2018-08-13T12:19:11.856Z,1070
2018-08-13T12:20:12.586Z,655
2018-08-13T12:21:13.330Z,600
2018-08-13T12:22:14.060Z,465
2018-08-13T12:23:14.789Z,350
2018-08-13T12:24:15.530Z,565
2018-08-13T12:25:16.260Z,1420
2018-08-13T12:26:17.019Z,305
2018-08-13T12:27:17.729Z,215
2018-08-13T12:28:18.454Z,230
2018-08-13T12:29:19.179Z,240
2018-08-13T12:30:19.908Z,245
2018-08-13T12:31:20.631Z,260
2018-08-13T12:32:21.356Z,255
2018-08-13T12:33:22.080Z,240
2018-08-13T12:34:22.806Z,270
2018-08-13T12:35:23.532Z,335
2018-08-13T12:36:24.261Z,495
2018-08-13T12:37:24.987Z,1025
2018-08-13T12:38:25.726Z,1395
2018-08-13T12:39:26.453Z,1125
2018-08-13T12:40:27.180Z,1140
2018-08-13T12:41:27.909Z,1030
2018-08-13T12:42:28.636Z,745
2018-08-13T12:43:29.362Z,530
2018-08-13T12:44:30.104Z,685
2018-08-13T12:45:30.831Z,625
2018-08-13T12:46:31.560Z,520
2018-08-13T12:47:32.298Z,410
2018-08-13T12:48:33.027Z,380
2018-08-13T12:49:33.766Z,315
2018-08-13T12:50:34.494Z,265
2018-08-13T12:51:35.231Z,245
2018-08-13T12:52:35.955Z,240
2018-08-13T12:53:36.682Z,245
2018-08-13T12:54:37.420Z,245
2018-08-13T12:55:38.145Z,285
2018-08-13T12:56:38.868Z,290
2018-08-13T12:57:39.607Z,305
2018-08-13T12:58:40.337Z,315
2018-08-13T12:59:41.070Z,320
2018-08-13T13:00:41.796Z,380
2018-08-13T13:01:42.519Z,630
2018-08-13T13:02:43.244Z,395
2018-08-13T13:03:43.972Z,290
2018-08-13T13:04:44.700Z,215
2018-08-13T13:05:45.427Z,200
2018-08-13T13:06:46.167Z,265
2018-08-13T13:07:46.905Z,340
2018-08-13T13:08:47.636Z,345
2018-08-13T13:09:48.377Z,290
2018-08-13T13:10:49.106Z,325
2018-08-13T13:11:49.848Z,360
2018-08-13T13:12:50.578Z,355
2018-08-13T13:13:51.316Z,330
2018-08-13T13:14:52.100Z,305
2018-08-13T13:15:52.779Z,300
2018-08-13T13:16:53.499Z,300
2018-08-13T13:17:54.230Z,310
2018-08-13T13:18:54.965Z,320
2018-08-13T13:19:55.693Z,315
2018-08-13T13:20:56.434Z,320
2018-08-13T13:21:57.160Z,320
2018-08-13T13:22:57.886Z,310
2018-08-13T13:23:58.628Z,300
2018-08-13T13:24:59.355Z,290
2018-08-13T13:26:00.169Z,280
2018-08-13T13:27:00.821Z,275
2018-08-13T13:28:01.546Z,260
2018-08-13T13:29:02.286Z,245
2018-08-13T13:30:03.015Z,235
2018-08-13T13:31:03.739Z,225
2018-08-13T13:32:04.475Z,210
2018-08-13T13:33:05.201Z,195
2018-08-13T13:34:05.928Z,185
2018-08-13T13:35:06.656Z,170
2018-08-13T13:36:07.375Z,160
2018-08-13T13:37:08.100Z,150
2018-08-13T13:38:08.824Z,145
2018-08-13T13:39:09.546Z,135
2018-08-13T13:40:10.274Z,130
2018-08-13T13:41:11.009Z,125
2018-08-13T13:42:11.734Z,120
2018-08-13T13:43:12.458Z,120
2018-08-13T13:44:13.183Z,120
2018-08-13T13:45:13.908Z,120
2018-08-13T13:46:14.661Z,115
2018-08-13T13:47:15.379Z,105
2018-08-13T13:48:16.105Z,100
2018-08-13T13:49:16.836Z,95
2018-08-13T13:50:17.559Z,90
2018-08-13T13:51:18.293Z,100
2018-08-13T13:52:19.016Z,120
2018-08-13T13:53:19.738Z,135
2018-08-13T13:54:20.460Z,155
2018-08-13T13:55:21.199Z,160
2018-08-13T13:56:21.918Z,170
2018-08-13T13:57:22.688Z,185
2018-08-13T13:58:23.363Z,185
2018-08-13T13:59:24.084Z,200
2018-08-13T14:00:24.805Z,215
2018-08-13T14:01:25.542Z,225
2018-08-13T14:02:26.265Z,280
2018-08-13T14:03:26.982Z,325
2018-08-13T14:04:27.705Z,315
2018-08-13T14:05:28.425Z,275
2018-08-13T14:06:29.149Z,250
2018-08-13T14:07:29.869Z,250
2018-08-13T14:08:30.595Z,195
2018-08-13T14:09:31.328Z,165
2018-08-13T14:10:32.050Z,160
2018-08-13T14:11:32.775Z,150
2018-08-13T14:12:33.497Z,150
2018-08-13T14:13:34.219Z,140
2018-08-13T14:14:34.943Z,120
2018-08-13T14:15:35.664Z,95
2018-08-13T14:16:36.413Z,60
2018-08-13T14:17:37.194Z,35
2018-08-13T14:18:37.824Z,20
2018-08-13T14:19:38.541Z,15
2018-08-13T14:20:39.261Z,10
2018-08-13T14:21:39.977Z,10
2018-08-13T14:22:40.697Z,10
2018-08-13T14:23:41.427Z,15
2018-08-13T14:24:42.160Z,15